Time;durP1;ratioP1;P1;durP2;ratioP2;P2;SDS_P1;SDS_P2;PMS_P1;PMS_P2;Temp;Humidity;BMP_temperature;BMP_pressure;BME280_temperature;BME280_humidity;BME280_pressure;Samples;Min_cycle;Max_cycle;Signal;HPM_P1;HPM_P2
2022/12/29 00:00:48;;;;;;;;;;;;;;;10.41;99.69;99979.00;5084494;28;19913;-67
2022/12/29 00:03:13;;;;;;;;;;;;;;;10.27;100.00;99996.03;5050896;28;19954;-67
2022/12/29 00:05:38;;;;;;;;;;;;;;;10.26;100.00;99978.34;5084315;28;19920;-67
2022/12/29 00:08:04;;;;;;;;;;;;;;;10.19;99.84;99985.94;5083463;28;20261;-67
2022/12/29 00:10:29;;;;;;;;;;;;;;;10.25;98.42;99984.63;5051601;28;20382;-67
2022/12/29 00:15:40;;;;;;;;;;;;;;;10.24;98.34;99951.88;5079371;28;19924;-67
2022/12/29 00:18:06;;;;;;;;;;;;;;;10.01;99.62;99958.94;5051671;28;20273;-67
2022/12/29 00:37:00;;;;;;;;;;;;;;;9.78;100.00;99938.56;5048935;28;19944;-67
2022/12/29 00:44:53;;;;;;;;;;;;;;;9.66;100.00;99931.50;5066391;28;19916;-66
2022/12/29 00:47:19;;;;;;;;;;;;;;;9.65;100.00;99919.22;5075477;28;19916;-67
2022/12/29 00:49:45;;;;;;;;;;;;;;;9.58;100.00;99913.47;5075312;28;20360;-67
2022/12/29 00:52:11;;;;;;;;;;;;;;;9.64;100.00;99915.69;5074977;28;19917;-66
2022/12/29 00:54:37;;;;;;;;;;;;;;;9.60;100.00;99918.69;5068686;28;19913;-67
2022/12/29 00:57:03;;;;;;;;;;;;;;;9.60;100.00;99908.06;5048190;28;20445;-67
2022/12/29 00:59:29;;;;;;;;;;;;;;;9.64;100.00;99910.38;5051103;28;19913;-67
2022/12/29 01:01:57;;;;;;;;;;;;;;;9.82;100.00;99902.00;5055044;28;19908;-67
2022/12/29 01:04:23;;;;;;;;;;;;;;;9.70;100.00;99901.94;5063865;28;19908;-66
2022/12/29 01:06:49;;;;;;;;;;;;;;;9.75;100.00;99891.84;5075199;28;19913;-67
2022/12/29 01:11:58;;;;;;;;;;;;;;;9.75;100.00;99881.22;5075208;28;20003;-67
2022/12/29 01:14:24;;;;;;;;;;;;;;;9.86;100.00;99879.56;5055818;28;19940;-67
2022/12/29 01:16:49;;;;;;;;;;;;;;;9.80;100.00;99882.69;5054831;28;19913;-67
2022/12/29 01:19:17;;;;;;;;;;;;;;;9.96;100.00;99883.22;5087297;28;19917;-66
2022/12/29 01:21:43;;;;;;;;;;;;;;;9.81;100.00;99882.56;5053750;28;19916;-66
2022/12/29 01:24:08;;;;;;;;;;;;;;;9.84;100.00;99885.00;5055553;28;19912;-67
2022/12/29 01:26:33;;;;;;;;;;;;;;;9.97;100.00;99883.09;5054789;28;19916;-66
2022/12/29 01:28:59;;;;;;;;;;;;;;;9.86;100.00;99875.09;5053352;28;20394;-67
2022/12/29 01:31:24;;;;;;;;;;;;;;;10.06;100.00;99868.28;5086796;28;19917;-67
2022/12/29 01:33:49;;;;;;;;;;;;;;;9.97;100.00;99866.28;5086249;28;20363;-66
2022/12/29 01:36:16;;;;;;;;;;;;;;;9.91;100.00;99874.72;5054465;28;19984;-66
2022/12/29 01:38:42;;;;;;;;;;;;;;;9.97;100.00;99866.28;5054160;28;19916;-66
2022/12/29 01:41:09;;;;;;;;;;;;;;;10.00;100.00;99871.41;5053163;28;20479;-67
2022/12/29 01:43:45;;;;;;;;;;;;;;;10.08;100.00;99878.78;5051827;28;19908;-67
2022/12/29 01:46:26;;;;;;;;;;;;;;;10.08;100.00;99876.97;5034278;28;20383;-66
2022/12/29 01:48:55;;;;;;;;;;;;;;;10.22;100.00;99867.94;5047029;28;19913;-67
2022/12/29 01:51:21;;;;;;;;;;;;;;;10.15;100.00;99880.84;5054241;28;19920;-67
2022/12/29 01:53:47;;;;;;;;;;;;;;;10.09;100.00;99878.66;5052440;28;19909;-66
2022/12/29 01:56:14;;;;;;;;;;;;;;;10.09;100.00;99876.00;5055155;28;20280;-67
2022/12/29 01:58:45;;;;;;;;;;;;;;;10.19;100.00;99868.16;5053737;28;19909;-67
2022/12/29 02:01:11;;;;;;;;;;;;;;;10.20;100.00;99886.63;5054250;28;19909;-67
2022/12/29 02:03:37;;;;;;;;;;;;;;;10.26;100.00;99885.31;5055882;28;19977;-66
2022/12/29 02:06:08;;;;;;;;;;;;;;;10.31;99.68;99874.38;5073282;28;19908;-66
2022/12/29 02:08:33;;;;;;;;;;;;;;;10.28;98.51;99871.97;5071550;28;19908;-66
2022/12/29 02:11:00;;;;;;;;;;;;;;;10.31;98.74;99869.91;5054595;28;19970;-66
2022/12/29 02:13:26;;;;;;;;;;;;;;;10.33;98.33;99872.47;5052528;28;19912;-66
2022/12/29 02:16:02;;;;;;;;;;;;;;;10.34;97.81;99864.34;5070451;28;20029;-67
2022/12/29 02:18:36;;;;;;;;;;;;;;;10.38;97.80;99867.59;5073526;28;19908;-66
2022/12/29 02:21:17;;;;;;;;;;;;;;;10.40;97.44;99873.66;5073867;28;20050;-66
2022/12/29 02:23:58;;;;;;;;;;;;;;;10.44;97.54;99880.41;5067126;28;19952;-67
2022/12/29 02:26:27;;;;;;;;;;;;;;;10.41;96.53;99867.38;5053554;28;19916;-66
2022/12/29 02:29:01;;;;;;;;;;;;;;;10.63;95.74;99862.06;5053420;28;20375;-66
2022/12/29 02:31:31;;;;;;;;;;;;;;;10.39;96.71;99853.38;5053556;28;19966;-67
2022/12/29 02:33:56;;;;;;;;;;;;;;;10.42;96.86;99847.81;5053878;28;19952;-66
2022/12/29 02:36:34;;;;;;;;;;;;;;;10.42;96.47;99846.00;5053555;28;19952;-66
2022/12/29 02:39:04;;;;;;;;;;;;;;;10.40;96.07;99853.22;5053394;28;20390;-66
2022/12/29 02:41:38;;;;;;;;;;;;;;;10.48;96.58;99851.81;5052056;28;20427;-67
2022/12/29 02:44:03;;;;;;;;;;;;;;;10.39;96.77;99842.75;5054181;28;19913;-67
2022/12/29 02:46:37;;;;;;;;;;;;;;;10.46;96.13;99849.25;5052874;28;20490;-67
2022/12/29 02:49:28;;;;;;;;;;;;;;;10.33;96.89;99851.19;5052920;28;19904;-66
2022/12/29 02:51:54;;;;;;;;;;;;;;;10.46;95.45;99849.25;5024620;28;20379;-66
2022/12/29 02:57:05;;;;;;;;;;;;;;;10.37;96.70;99831.38;5053658;28;19934;-66
2022/12/29 02:59:30;;;;;;;;;;;;;;;10.30;96.87;99836.34;5052806;28;19999;-66
2022/12/29 03:02:20;;;;;;;;;;;;;;;10.40;96.11;99839.94;5085941;28;19996;-67
2022/12/29 03:04:51;;;;;;;;;;;;;;;10.42;96.46;99826.53;5043404;28;19998;-67
2022/12/29 03:07:34;;;;;;;;;;;;;;;10.31;96.64;99827.38;5072871;28;19915;-67
2022/12/29 03:10:04;;;;;;;;;;;;;;;10.31;96.44;99814.09;5072239;28;19908;-67
2022/12/29 03:18:17;;;;;;;;;;;;;;;10.49;95.01;99842.84;5054133;28;19915;-65
2022/12/29 03:21:03;;;;;;;;;;;;;;;10.32;95.28;99837.03;5063856;28;20285;-66
2022/12/29 03:23:29;;;;;;;;;;;;;;;10.24;96.28;99827.00;5069124;28;19912;-66
2022/12/29 03:25:57;;;;;;;;;;;;;;;10.30;95.31;99820.38;5068981;28;19915;-66
2022/12/29 03:28:29;;;;;;;;;;;;;;;10.24;95.78;99824.34;5069420;28;19917;-67
2022/12/29 03:30:55;;;;;;;;;;;;;;;10.38;94.49;99812.66;5069963;28;19920;-67
2022/12/29 03:33:24;;;;;;;;;;;;;;;10.30;96.08;99830.19;5058581;28;19928;-66
2022/12/29 03:35:50;;;;;;;;;;;;;;;10.27;96.49;99823.28;5064768;28;19924;-66
2022/12/29 03:38:21;;;;;;;;;;;;;;;10.26;95.43;99810.06;5069701;28;19918;-66
2022/12/29 03:40:49;;;;;;;;;;;;;;;10.17;96.30;99827.56;5056044;28;19913;-66
2022/12/29 03:43:16;;;;;;;;;;;;;;;10.05;96.60;99831.19;5064626;28;19912;-66
2022/12/29 03:45:42;;;;;;;;;;;;;;;10.17;95.48;99831.06;5063226;28;19959;-67
2022/12/29 03:48:08;;;;;;;;;;;;;;;10.33;94.31;99816.66;5068997;28;19912;-66
2022/12/29 03:50:35;;;;;;;;;;;;;;;10.17;95.61;99828.41;5069789;28;20371;-66
2022/12/29 03:53:01;;;;;;;;;;;;;;;9.98;96.01;99836.97;5055098;28;19916;-66
2022/12/29 03:55:26;;;;;;;;;;;;;;;9.98;96.66;99826.34;5059655;28;19939;-66
2022/12/29 03:57:51;;;;;;;;;;;;;;;10.03;96.82;99849.91;5069714;28;20383;-66
2022/12/29 04:00:19;;;;;;;;;;;;;;;10.04;95.83;99851.59;5099527;28;20283;-66
2022/12/29 04:02:47;;;;;;;;;;;;;;;9.94;96.77;99856.78;5065672;28;19912;-65
2022/12/29 04:05:12;;;;;;;;;;;;;;;9.89;97.92;99852.78;5068964;28;20274;-66
2022/12/29 04:07:37;;;;;;;;;;;;;;;9.91;97.13;99846.41;5066497;28;19918;-66
2022/12/29 04:10:03;;;;;;;;;;;;;;;9.87;98.19;99828.13;5069036;28;20452;-66
2022/12/29 04:12:28;;;;;;;;;;;;;;;9.93;97.78;99841.78;5059058;28;19925;-66
2022/12/29 04:14:53;;;;;;;;;;;;;;;9.93;98.45;99848.91;5062970;28;19985;-66
2022/12/29 04:17:19;;;;;;;;;;;;;;;9.67;99.21;99862.34;5068843;28;19920;-65
2022/12/29 04:19:44;;;;;;;;;;;;;;;9.58;99.91;99859.53;5069528;28;19913;-66
2022/12/29 04:22:09;;;;;;;;;;;;;;;9.65;99.13;99877.56;5084466;28;19916;-66
2022/12/29 04:24:35;;;;;;;;;;;;;;;9.54;99.68;99867.75;5054511;28;19916;-65
2022/12/29 04:27:03;;;;;;;;;;;;;;;9.53;99.08;99875.84;5070810;28;19908;-67
2022/12/29 04:29:28;;;;;;;;;;;;;;;9.51;99.30;99861.81;5068971;28;19916;-66
2022/12/29 04:31:53;;;;;;;;;;;;;;;9.59;98.56;99867.41;5067622;28;19966;-67
2022/12/29 04:34:18;;;;;;;;;;;;;;;9.52;98.55;99863.50;5078871;28;19924;-66
2022/12/29 04:36:44;;;;;;;;;;;;;;;9.50;98.04;99865.41;5069634;28;19936;-66
2022/12/29 04:39:09;;;;;;;;;;;;;;;9.46;98.72;99872.78;5065245;28;20011;-66
2022/12/29 04:41:35;;;;;;;;;;;;;;;9.43;98.26;99869.50;5050118;28;19909;-66
2022/12/29 04:44:00;;;;;;;;;;;;;;;9.77;95.74;99879.28;5062987;28;19916;-66
2022/12/29 04:46:25;;;;;;;;;;;;;;;9.40;97.23;99883.84;5069324;28;19920;-66
2022/12/29 04:48:51;;;;;;;;;;;;;;;9.36;97.08;99887.69;5070082;28;19908;-66
2022/12/29 04:51:16;;;;;;;;;;;;;;;9.59;94.95;99886.00;5050938;28;19920;-67
2022/12/29 04:53:41;;;;;;;;;;;;;;;9.52;94.94;99898.00;5044247;28;19916;-66
2022/12/29 04:56:07;;;;;;;;;;;;;;;9.32;95.01;99892.38;5070718;28;20275;-66
2022/12/29 04:58:32;;;;;;;;;;;;;;;9.42;94.86;99894.34;5071232;28;19916;-66
2022/12/29 05:00:57;;;;;;;;;;;;;;;9.54;94.44;99902.25;5071387;28;19931;-66
2022/12/29 05:03:23;;;;;;;;;;;;;;;9.35;94.00;99901.06;5071089;28;19924;-66
2022/12/29 05:05:48;;;;;;;;;;;;;;;9.54;92.29;99914.69;5051439;28;19919;-67
2022/12/29 05:08:16;;;;;;;;;;;;;;;9.38;92.81;99906.13;5083261;28;19913;-66
2022/12/29 05:10:46;;;;;;;;;;;;;;;9.35;93.17;99930.25;5083938;28;19948;-66
2022/12/29 05:13:12;;;;;;;;;;;;;;;9.40;92.43;99921.00;5052085;28;19913;-66
2022/12/29 05:15:40;;;;;;;;;;;;;;;9.28;92.65;99925.38;5051431;28;20415;-66
2022/12/29 05:18:06;;;;;;;;;;;;;;;9.35;92.03;99927.59;5054409;28;19987;-66
2022/12/29 05:20:31;;;;;;;;;;;;;;;9.30;91.89;99933.25;5054996;28;19971;-66
2022/12/29 05:22:57;;;;;;;;;;;;;;;9.25;92.61;99930.91;5086816;28;19921;-66
2022/12/29 05:25:22;;;;;;;;;;;;;;;9.33;92.33;99939.19;5054355;28;19912;-65
2022/12/29 05:27:48;;;;;;;;;;;;;;;9.43;91.85;99939.34;5054341;28;19948;-67
2022/12/29 05:30:14;;;;;;;;;;;;;;;9.35;92.54;99935.56;5070011;28;19915;-65
2022/12/29 05:32:39;;;;;;;;;;;;;;;9.35;92.54;99933.75;5070451;28;20294;-65
2022/12/29 05:35:04;;;;;;;;;;;;;;;9.45;91.67;99939.25;5086655;28;19923;-66
2022/12/29 05:37:32;;;;;;;;;;;;;;;9.40;92.20;99944.88;5053042;28;19915;-66
2022/12/29 05:39:59;;;;;;;;;;;;;;;9.43;91.83;99944.66;5054009;28;19913;-66
2022/12/29 05:42:25;;;;;;;;;;;;;;;9.54;90.54;99951.84;5054383;28;20287;-66
2022/12/29 05:44:53;;;;;;;;;;;;;;;9.60;90.67;99938.13;5054795;28;19913;-66
2022/12/29 05:47:18;;;;;;;;;;;;;;;9.50;91.08;99963.63;5088579;28;19927;-66
2022/12/29 05:49:44;;;;;;;;;;;;;;;9.41;90.87;99964.28;5067687;28;20308;-66
2022/12/29 05:52:09;;;;;;;;;;;;;;;9.44;90.39;99954.34;5085436;28;20341;-66
2022/12/29 05:54:36;;;;;;;;;;;;;;;9.45;89.57;99973.75;5053801;28;19912;-66
2022/12/29 05:57:02;;;;;;;;;;;;;;;9.57;89.52;99972.84;5054060;28;20382;-67
2022/12/29 05:59:28;;;;;;;;;;;;;;;9.56;89.64;99992.41;5053928;28;19909;-66
2022/12/29 06:01:53;;;;;;;;;;;;;;;9.67;87.88;99971.22;5052776;28;19972;-65
2022/12/29 06:04:19;;;;;;;;;;;;;;;9.58;89.13;99963.91;5086294;28;20318;-66
2022/12/29 06:06:47;;;;;;;;;;;;;;;9.60;90.23;99958.50;5063050;28;19963;-66
2022/12/29 06:09:13;;;;;;;;;;;;;;;9.91;86.82;99983.63;5067477;28;19955;-66
2022/12/29 06:11:38;;;;;;;;;;;;;;;9.72;87.34;99969.06;5065382;28;19927;-66
2022/12/29 06:14:04;;;;;;;;;;;;;;;9.73;87.52;99960.13;5101831;28;19916;-67
2022/12/29 06:16:29;;;;;;;;;;;;;;;9.92;86.31;99970.25;5054967;28;19919;-66
2022/12/29 06:18:54;;;;;;;;;;;;;;;9.80;87.04;99980.94;5073326;28;20219;-67
2022/12/29 06:21:20;;;;;;;;;;;;;;;9.67;86.79;99970.38;5072983;28;20103;-66
2022/12/29 06:23:46;;;;;;;;;;;;;;;9.86;86.38;99967.22;5069290;28;20375;-67
2022/12/29 06:26:12;;;;;;;;;;;;;;;9.82;85.86;99965.72;5061037;28;19912;-66
2022/12/29 06:28:37;;;;;;;;;;;;;;;9.71;87.58;99961.22;5054792;28;19912;-67
2022/12/29 06:31:03;;;;;;;;;;;;;;;9.86;85.78;99953.94;5053436;28;19913;-67
2022/12/29 06:33:31;;;;;;;;;;;;;;;9.71;85.77;99950.63;5053016;28;20300;-67
2022/12/29 06:35:57;;;;;;;;;;;;;;;9.66;85.76;99958.91;5053812;28;19908;-67
2022/12/29 06:38:22;;;;;;;;;;;;;;;9.74;85.53;99953.03;5051848;28;19912;-66
2022/12/29 06:40:48;;;;;;;;;;;;;;;9.59;86.52;99954.16;5052030;28;19965;-66
2022/12/29 06:43:13;;;;;;;;;;;;;;;9.81;84.52;99953.41;5085653;28;19912;-66
2022/12/29 06:45:39;;;;;;;;;;;;;;;9.62;85.77;99961.88;5052147;28;19999;-67
2022/12/29 06:48:05;;;;;;;;;;;;;;;9.68;85.67;99961.47;5054078;28;19912;-66
2022/12/29 06:50:30;;;;;;;;;;;;;;;9.75;84.73;99947.59;5085321;28;19971;-67
2022/12/29 06:52:56;;;;;;;;;;;;;;;9.67;86.09;99947.31;5051636;28;19915;-66
2022/12/29 06:55:22;;;;;;;;;;;;;;;9.68;86.28;99946.38;5053456;28;19952;-67
2022/12/29 06:57:47;;;;;;;;;;;;;;;9.60;86.47;99959.34;5085121;28;19944;-67
2022/12/29 07:00:13;;;;;;;;;;;;;;;9.56;85.33;99960.56;5053242;28;19954;-66
2022/12/29 07:02:38;;;;;;;;;;;;;;;9.81;84.79;99962.22;5085225;28;19939;-66
2022/12/29 07:05:03;;;;;;;;;;;;;;;9.85;83.99;99979.63;5052824;28;19908;-66
2022/12/29 07:07:31;;;;;;;;;;;;;;;9.73;85.36;99969.91;5067839;28;19987;-66
2022/12/29 07:09:57;;;;;;;;;;;;;;;9.70;84.09;99976.28;5052506;28;19909;-66
2022/12/29 07:12:23;;;;;;;;;;;;;;;9.66;84.34;99984.59;5084910;28;19947;-66
2022/12/29 07:14:48;;;;;;;;;;;;;;;9.67;84.88;99981.81;5052713;28;19909;-66
2022/12/29 07:17:14;;;;;;;;;;;;;;;9.68;84.88;99991.50;5052784;28;19991;-67
2022/12/29 07:19:39;;;;;;;;;;;;;;;9.81;82.23;99982.63;5084787;28;19920;-66
2022/12/29 07:22:08;;;;;;;;;;;;;;;9.86;82.24;100004.41;5051056;28;19909;-66
2022/12/29 07:24:33;;;;;;;;;;;;;;;9.86;81.27;100004.41;5052027;28;19915;-66
2022/12/29 07:26:59;;;;;;;;;;;;;;;9.98;80.70;100006.97;5084367;28;19921;-66
2022/12/29 07:29:24;;;;;;;;;;;;;;;9.79;81.27;100017.25;5053848;28;19917;-67
2022/12/29 07:31:50;;;;;;;;;;;;;;;9.74;81.27;100027.38;5052215;28;19919;-66
2022/12/29 07:34:15;;;;;;;;;;;;;;;9.76;80.01;100031.63;5054163;28;20372;-66
2022/12/29 07:36:41;;;;;;;;;;;;;;;9.74;79.70;100022.06;5047803;28;19923;-66
2022/12/29 07:39:06;;;;;;;;;;;;;;;9.93;79.15;100025.06;5045520;28;20019;-66
2022/12/29 07:41:32;;;;;;;;;;;;;;;9.87;79.80;100027.31;5052076;28;19916;-66
2022/12/29 07:43:57;;;;;;;;;;;;;;;9.69;81.09;100029.53;5052122;28;19908;-66
2022/12/29 07:46:23;;;;;;;;;;;;;;;9.55;80.02;100026.03;5055919;28;19999;-66
2022/12/29 07:48:49;;;;;;;;;;;;;;;9.60;81.07;100033.69;5051542;28;19913;-66
2022/12/29 07:51:14;;;;;;;;;;;;;;;9.58;80.23;100054.19;5087888;28;19927;-66
2022/12/29 07:53:40;;;;;;;;;;;;;;;9.72;79.88;100031.94;5101318;28;19916;-66
2022/12/29 07:56:06;;;;;;;;;;;;;;;9.67;80.58;100032.28;5104901;28;20306;-66
2022/12/29 07:58:31;;;;;;;;;;;;;;;9.65;81.25;100020.94;5064953;28;20387;-67
2022/12/29 08:00:57;;;;;;;;;;;;;;;9.64;81.37;100021.03;5059581;28;19920;-66
2022/12/29 08:03:25;;;;;;;;;;;;;;;9.72;81.39;100030.13;5051933;28;20517;-66
2022/12/29 08:05:51;;;;;;;;;;;;;;;9.73;80.69;100031.81;5050623;28;19977;-67
2022/12/29 08:08:16;;;;;;;;;;;;;;;9.71;81.27;100033.75;5058270;28;20431;-67
2022/12/29 08:10:41;;;;;;;;;;;;;;;9.82;79.75;100042.75;5051766;28;20272;-66
2022/12/29 08:13:07;;;;;;;;;;;;;;;9.70;80.61;100033.84;5052708;28;19916;-66
2022/12/29 08:15:35;;;;;;;;;;;;;;;10.01;78.50;100043.09;5069281;28;19912;-67
2022/12/29 08:18:01;;;;;;;;;;;;;;;9.86;77.50;100028.31;5071631;28;20333;-67
2022/12/29 08:20:26;;;;;;;;;;;;;;;9.73;78.22;100045.09;5066912;28;19921;-67
2022/12/29 08:22:52;;;;;;;;;;;;;;;9.77;77.76;100046.59;5060321;28;19967;-68
2022/12/29 08:25:17;;;;;;;;;;;;;;;9.80;76.97;100042.03;5069727;28;19979;-67
2022/12/29 08:27:44;;;;;;;;;;;;;;;9.86;76.93;100039.75;5072142;28;19923;-67
2022/12/29 08:30:10;;;;;;;;;;;;;;;10.02;76.36;100050.09;5071244;28;19908;-67
2022/12/29 08:32:35;;;;;;;;;;;;;;;10.11;76.06;100045.91;5102427;28;19932;-66
2022/12/29 08:35:03;;;;;;;;;;;;;;;9.88;77.34;100050.25;5086824;28;19913;-67
2022/12/29 08:37:28;;;;;;;;;;;;;;;9.80;77.72;100055.31;5054066;28;19931;-66
2022/12/29 08:39:54;;;;;;;;;;;;;;;9.83;77.17;100045.31;5050769;28;19909;-67
2022/12/29 08:42:19;;;;;;;;;;;;;;;9.89;77.03;100047.50;5067074;28;19931;-67
2022/12/29 08:44:47;;;;;;;;;;;;;;;9.94;76.93;100045.38;5081853;28;19966;-67
2022/12/29 08:47:12;;;;;;;;;;;;;;;9.87;76.98;100049.41;5071593;28;19915;-66
2022/12/29 08:49:37;;;;;;;;;;;;;;;9.97;76.73;100052.25;5071245;28;19908;-67
2022/12/29 08:52:04;;;;;;;;;;;;;;;9.91;77.19;100069.50;5062392;28;19936;-67
2022/12/29 08:54:29;;;;;;;;;;;;;;;9.95;76.24;100044.41;5074185;28;20271;-67
2022/12/29 08:56:57;;;;;;;;;;;;;;;10.15;75.82;100045.59;5075408;28;19915;-67
2022/12/29 08:59:22;;;;;;;;;;;;;;;9.94;76.90;100047.16;5075124;28;19920;-67
2022/12/29 09:01:48;;;;;;;;;;;;;;;10.04;75.46;100072.09;5100041;28;19917;-67
2022/12/29 09:04:13;;;;;;;;;;;;;;;10.07;76.29;100063.06;5086287;28;19939;-67
2022/12/29 09:06:41;;;;;;;;;;;;;;;10.02;76.79;100061.56;5058565;28;19916;-67
2022/12/29 09:09:06;;;;;;;;;;;;;;;10.09;76.18;100055.81;5074597;28;20007;-67
2022/12/29 09:11:32;;;;;;;;;;;;;;;10.04;76.07;100076.56;5072853;28;20019;-67
2022/12/29 09:13:57;;;;;;;;;;;;;;;10.07;76.34;100055.09;5068681;28;19912;-67
2022/12/29 09:16:23;;;;;;;;;;;;;;;10.16;76.75;100091.59;5069732;28;19917;-67
2022/12/29 09:18:50;;;;;;;;;;;;;;;10.05;77.05;100079.09;5072401;28;19999;-67
2022/12/29 09:21:15;;;;;;;;;;;;;;;9.98;77.03;100076.06;5053933;28;20007;-67
2022/12/29 09:23:41;;;;;;;;;;;;;;;10.01;77.82;100075.81;5053450;28;20407;-67
2022/12/29 09:26:07;;;;;;;;;;;;;;;9.98;78.27;100094.66;5052932;28;19920;-66
2022/12/29 09:28:33;;;;;;;;;;;;;;;10.05;77.73;100089.72;5053655;28;19931;-67
2022/12/29 09:30:58;;;;;;;;;;;;;;;9.92;78.17;100092.44;5053664;28;20641;-67
2022/12/29 09:33:27;;;;;;;;;;;;;;;9.90;79.80;100098.81;5053912;28;19916;-67
2022/12/29 09:35:54;;;;;;;;;;;;;;;9.84;81.22;100092.13;5052339;28;20273;-68
2022/12/29 09:38:20;;;;;;;;;;;;;;;9.94;79.54;100105.59;5053069;28;19912;-67
2022/12/29 09:40:49;;;;;;;;;;;;;;;10.04;79.28;100096.00;5089232;28;19912;-67
2022/12/29 09:43:14;;;;;;;;;;;;;;;9.86;79.64;100113.28;5074154;28;20366;-67
2022/12/29 09:45:44;;;;;;;;;;;;;;;9.83;79.75;100111.69;5074340;28;19970;-67
2022/12/29 09:48:16;;;;;;;;;;;;;;;9.73;81.76;100113.28;5073970;28;19975;-67
2022/12/29 09:50:44;;;;;;;;;;;;;;;9.82;81.53;100128.56;5074370;28;20279;-67
2022/12/29 09:53:15;;;;;;;;;;;;;;;9.84;80.90;100131.97;5054574;28;19917;-67
2022/12/29 09:55:51;;;;;;;;;;;;;;;10.01;80.04;100138.75;5054264;28;19909;-67
2022/12/29 09:58:25;;;;;;;;;;;;;;;9.70;82.01;100143.56;5052893;28;19915;-67
2022/12/29 10:00:53;;;;;;;;;;;;;;;9.81;81.45;100142.81;5059395;28;19909;-67
2022/12/29 10:03:20;;;;;;;;;;;;;;;9.64;83.00;100172.38;5072621;28;19920;-67
2022/12/29 10:05:45;;;;;;;;;;;;;;;9.50;84.67;100162.69;5074254;28;19916;-67
2022/12/29 10:08:11;;;;;;;;;;;;;;;9.45;85.24;100168.34;5073485;28;20271;-67
2022/12/29 10:10:40;;;;;;;;;;;;;;;9.50;86.06;100181.28;5073006;28;19916;-67
2022/12/29 10:13:05;;;;;;;;;;;;;;;9.46;86.15;100171.84;5033940;28;19967;-67
2022/12/29 10:15:40;;;;;;;;;;;;;;;9.32;88.83;100176.31;5034018;28;19913;-67
2022/12/29 10:18:08;;;;;;;;;;;;;;;9.42;88.08;100188.94;5032386;28;19913;-67
2022/12/29 10:20:52;;;;;;;;;;;;;;;9.41;87.38;100190.75;5044753;28;19915;-67
2022/12/29 10:23:37;;;;;;;;;;;;;;;9.19;89.54;100191.34;5073195;28;19966;-67
2022/12/29 10:26:03;;;;;;;;;;;;;;;9.14;90.25;100200.59;5072419;28;19930;-67
2022/12/29 10:28:38;;;;;;;;;;;;;;;9.12;90.50;100205.13;5073368;28;19958;-67
2022/12/29 10:31:05;;;;;;;;;;;;;;;9.32;89.05;100207.28;5071249;28;19956;-68
2022/12/29 10:33:41;;;;;;;;;;;;;;;9.06;91.31;100215.22;5063578;28;19963;-67
2022/12/29 10:36:18;;;;;;;;;;;;;;;9.07;91.28;100210.75;5053239;28;19912;-68
2022/12/29 10:38:58;;;;;;;;;;;;;;;9.08;91.32;100217.75;5054239;28;19920;-68
2022/12/29 10:41:24;;;;;;;;;;;;;;;9.14;90.61;100208.53;5072936;28;20358;-68
2022/12/29 10:43:50;;;;;;;;;;;;;;;9.09;91.84;100227.44;5073008;28;19995;-68
2022/12/29 10:46:18;;;;;;;;;;;;;;;9.08;91.94;100234.53;5073122;28;20420;-67
2022/12/29 10:48:46;;;;;;;;;;;;;;;9.10;91.69;100234.44;5072770;28;19912;-67
2022/12/29 10:51:18;;;;;;;;;;;;;;;9.11;91.52;100238.78;5067983;28;19920;-68
2022/12/29 10:53:47;;;;;;;;;;;;;;;9.15;91.20;100239.41;5085216;28;19908;-68
2022/12/29 10:56:22;;;;;;;;;;;;;;;9.13;91.39;100234.22;5053219;28;19967;-67
2022/12/29 10:58:48;;;;;;;;;;;;;;;9.21;90.62;100253.13;5058153;28;19912;-68
2022/12/29 11:01:14;;;;;;;;;;;;;;;9.05;92.75;100261.25;5073049;28;19912;-67
2022/12/29 11:03:42;;;;;;;;;;;;;;;9.00;93.33;100258.06;5072921;28;19953;-67
2022/12/29 11:06:14;;;;;;;;;;;;;;;9.13;92.88;100263.41;5072861;28;19940;-68
2022/12/29 11:08:45;;;;;;;;;;;;;;;8.98;94.53;100265.28;5069777;28;19958;-67
2022/12/29 11:11:10;;;;;;;;;;;;;;;9.08;93.14;100265.50;5048185;28;19913;-67
2022/12/29 11:13:56;;;;;;;;;;;;;;;8.88;94.52;100269.47;5064676;28;19917;-67
2022/12/29 11:16:31;;;;;;;;;;;;;;;9.07;93.91;100277.09;5032633;28;19912;-68
2022/12/29 11:18:57;;;;;;;;;;;;;;;8.83;95.33;100261.81;5050482;28;19962;-68
2022/12/29 11:21:30;;;;;;;;;;;;;;;8.94;94.24;100265.56;5070491;28;20377;-68
2022/12/29 11:24:03;;;;;;;;;;;;;;;8.97;94.39;100263.59;5070314;28;19912;-68
2022/12/29 11:26:30;;;;;;;;;;;;;;;8.99;94.62;100266.97;5072346;28;19917;-67
2022/12/29 11:29:04;;;;;;;;;;;;;;;9.05;94.11;100281.63;5071856;28;19915;-68
2022/12/29 11:31:29;;;;;;;;;;;;;;;9.08;94.13;100279.63;5072082;28;20267;-67
2022/12/29 11:33:57;;;;;;;;;;;;;;;9.24;92.14;100283.94;5059518;28;20220;-68
2022/12/29 11:36:24;;;;;;;;;;;;;;;9.36;91.10;100282.25;5051430;28;20015;-68
2022/12/29 11:38:50;;;;;;;;;;;;;;;9.25;90.99;100286.47;5051696;28;19909;-68
2022/12/29 11:41:21;;;;;;;;;;;;;;;9.28;91.51;100285.41;5052388;28;19909;-68
2022/12/29 11:43:47;;;;;;;;;;;;;;;9.25;91.14;100290.94;5050516;28;19909;-67
2022/12/29 11:46:25;;;;;;;;;;;;;;;9.27;90.59;100292.53;5053195;28;19917;-67
2022/12/29 11:48:51;;;;;;;;;;;;;;;9.28;90.76;100301.34;5050724;28;20413;-68
2022/12/29 11:51:28;;;;;;;;;;;;;;;9.43;90.28;100299.47;5050880;28;20003;-68
2022/12/29 11:53:56;;;;;;;;;;;;;;;9.25;91.29;100304.19;5051380;28;20359;-68
2022/12/29 11:56:32;;;;;;;;;;;;;;;9.45;89.97;100306.38;5052209;28;20341;-68
2022/12/29 11:58:58;;;;;;;;;;;;;;;9.51;90.28;100305.09;5051963;28;20346;-67
2022/12/29 12:01:31;;;;;;;;;;;;;;;9.44;89.22;100317.94;5052040;28;19928;-67
2022/12/29 12:03:56;;;;;;;;;;;;;;;9.72;87.87;100305.47;5051861;28;19952;-68
2022/12/29 12:06:24;;;;;;;;;;;;;;;9.48;88.88;100314.13;5052177;28;19959;-67
2022/12/29 12:08:56;;;;;;;;;;;;;;;9.60;88.20;100298.31;5051457;28;19982;-68
2022/12/29 12:11:33;;;;;;;;;;;;;;;9.59;87.99;100300.13;5050694;28;19951;-67
2022/12/29 12:14:07;;;;;;;;;;;;;;;9.69;87.43;100303.00;5054803;28;19908;-67
2022/12/29 12:16:39;;;;;;;;;;;;;;;9.85;85.29;100313.41;5071909;28;20346;-68
2022/12/29 12:19:20;;;;;;;;;;;;;;;9.69;84.58;100298.53;5070523;28;19962;-68
2022/12/29 12:21:50;;;;;;;;;;;;;;;9.96;84.01;100300.25;5070759;28;19908;-67
2022/12/29 12:24:27;;;;;;;;;;;;;;;9.77;84.57;100306.00;5069752;28;20007;-67
2022/12/29 12:27:02;;;;;;;;;;;;;;;9.59;85.58;100309.88;5072989;28;19943;-67
2022/12/29 12:29:27;;;;;;;;;;;;;;;9.65;85.68;100305.03;5074356;28;19962;-67
2022/12/29 12:31:58;;;;;;;;;;;;;;;9.78;86.17;100311.19;5075644;28;19952;-68
2022/12/29 12:34:37;;;;;;;;;;;;;;;9.83;84.45;100310.03;5058857;28;19964;-67
2022/12/29 12:37:14;;;;;;;;;;;;;;;10.23;82.71;100293.03;5067703;28;20343;-68
2022/12/29 12:39:58;;;;;;;;;;;;;;;10.11;82.83;100307.16;5035203;28;19913;-67
2022/12/29 12:42:29;;;;;;;;;;;;;;;10.34;80.13;100305.56;5035211;28;19909;-68
2022/12/29 12:45:02;;;;;;;;;;;;;;;10.48;79.26;100301.09;5035275;28;19916;-68
2022/12/29 12:47:40;;;;;;;;;;;;;;;10.53;79.63;100312.22;5055987;28;19935;-68
2022/12/29 12:50:14;;;;;;;;;;;;;;;10.68;78.20;100313.81;5055166;28;19908;-68
2022/12/29 12:52:54;;;;;;;;;;;;;;;10.52;77.62;100313.19;5055530;28;19917;-68
2022/12/29 12:55:23;;;;;;;;;;;;;;;10.42;78.43;100331.63;5063579;28;19908;-68
2022/12/29 12:58:00;;;;;;;;;;;;;;;10.39;77.97;100332.69;5075331;28;19912;-68
2022/12/29 13:00:27;;;;;;;;;;;;;;;10.33;78.62;100332.28;5064693;28;19912;-67
2022/12/29 13:03:25;;;;;;;;;;;;;;;10.31;78.29;100336.84;5064164;28;19913;-68
2022/12/29 13:06:05;;;;;;;;;;;;;;;10.16;78.57;100330.75;5037539;28;19966;-68
2022/12/29 13:08:43;;;;;;;;;;;;;;;10.11;79.80;100333.72;5052300;28;20372;-67
2022/12/29 13:11:35;;;;;;;;;;;;;;;10.04;80.93;100327.16;5043811;28;19917;-68
2022/12/29 13:14:12;;;;;;;;;;;;;;;9.86;82.65;100331.94;5061496;28;20371;-68
2022/12/29 13:17:03;;;;;;;;;;;;;;;9.90;82.47;100329.91;5067270;28;20011;-67
2022/12/29 13:19:29;;;;;;;;;;;;;;;9.81;83.71;100347.31;5070559;28;19912;-68
2022/12/29 13:21:54;;;;;;;;;;;;;;;9.79;83.82;100351.88;5069847;28;19916;-67
2022/12/29 13:24:34;;;;;;;;;;;;;;;9.64;85.08;100356.41;5073617;28;19912;-68
2022/12/29 13:27:09;;;;;;;;;;;;;;;9.43;88.22;100350.72;5034619;28;19917;-68
2022/12/29 13:29:40;;;;;;;;;;;;;;;9.34;88.88;100359.31;5034602;28;19915;-68